地図

経路データ

SID SEASON NUMBER BASIN SUBBASIN NAME ISO_TIME NATURE LAT LON WMO_WIND WMO_PRES WMO_AGENCY TRACK_TYPE DIST2LAND LANDFALL IFLAG USA_AGENCY USA_ATCF_ID USA_LAT USA_LON USA_RECORD USA_STATUS USA_WIND USA_PRES USA_SSHS USA_R34_NE USA_R34_SE USA_R34_SW USA_R34_NW USA_R50_NE USA_R50_SE USA_R50_SW USA_R50_NW USA_R64_NE USA_R64_SE USA_R64_SW USA_R64_NW USA_POCI USA_ROCI USA_RMW USA_EYE TOKYO_LAT TOKYO_LON TOKYO_GRADE TOKYO_WIND TOKYO_PRES TOKYO_R50_DIR TOKYO_R50_LONG TOKYO_R50_SHORT TOKYO_R30_DIR TOKYO_R30_LONG TOKYO_R30_SHORT TOKYO_LAND CMA_LAT CMA_LON CMA_CAT CMA_WIND CMA_PRES HKO_LAT HKO_LON HKO_CAT HKO_WIND HKO_PRES NEWDELHI_LAT NEWDELHI_LON NEWDELHI_GRADE NEWDELHI_WIND NEWDELHI_PRES NEWDELHI_CI NEWDELHI_DP NEWDELHI_POCI REUNION_LAT REUNION_LON REUNION_TYPE REUNION_WIND REUNION_PRES REUNION_TNUM REUNION_CI REUNION_RMW REUNION_R34_NE REUNION_R34_SE REUNION_R34_SW REUNION_R34_NW REUNION_R50_NE REUNION_R50_SE REUNION_R50_SW REUNION_R50_NW REUNION_R64_NE REUNION_R64_SE REUNION_R64_SW REUNION_R64_NW BOM_LAT BOM_LON BOM_TYPE BOM_WIND BOM_PRES BOM_TNUM BOM_CI BOM_RMW BOM_R34_NE BOM_R34_SE BOM_R34_SW BOM_R34_NW BOM_R50_NE BOM_R50_SE BOM_R50_SW BOM_R50_NW BOM_R64_NE BOM_R64_SE BOM_R64_SW BOM_R64_NW BOM_ROCI BOM_POCI BOM_EYE BOM_POS_METHOD BOM_PRES_METHOD NADI_LAT NADI_LON NADI_CAT NADI_WIND NADI_PRES WELLINGTON_LAT WELLINGTON_LON WELLINGTON_WIND WELLINGTON_PRES DS824_LAT DS824_LON DS824_STAGE DS824_WIND DS824_PRES TD9636_LAT TD9636_LON TD9636_STAGE TD9636_WIND TD9636_PRES TD9635_LAT TD9635_LON TD9635_WIND TD9635_PRES TD9635_ROCI NEUMANN_LAT NEUMANN_LON NEUMANN_CLASS NEUMANN_WIND NEUMANN_PRES MLC_LAT MLC_LON MLC_CLASS MLC_WIND MLC_PRES USA_GUST BOM_GUST BOM_GUST_PER REUNION_GUST REUNION_GUST_PER USA_SEAHGT USA_SEARAD_NE USA_SEARAD_SE USA_SEARAD_SW USA_SEARAD_NW STORM_SPEED STORM_DIR
1940244N15143 1940 56 WP MM NOT_NAMED 1940-08-30 12:00:00 NR 15.1000 142.600 main 1876 1860 __________O___ -1 15.1000 142.600 7 9 332
1940244N15143 1940 56 WP MM NOT_NAMED 1940-08-30 15:00:00 NR 15.4843 142.382 main 1861 1844 __________P___ -1 15.4843 142.382 7 9 330
1940244N15143 1940 56 WP MM NOT_NAMED 1940-08-30 18:00:00 NR 15.8448 142.151 main 1846 1821 __________P___ -1 15.8448 142.151 7 8 325
1940244N15143 1940 56 WP MM NOT_NAMED 1940-08-30 21:00:00 NR 16.1579 141.894 main 1823 1797 __________P___ -1 16.1579 141.894 7 8 316
1940244N15143 1940 56 WP MM NOT_NAMED 1940-08-31 00:00:00 NR 16.4000 141.600 main 1797 1768 __________O___ -1 16.4000 141.600 3 7 304
1940244N15143 1940 56 WP MM NOT_NAMED 1940-08-31 03:00:00 NR 16.5584 141.265 main 1771 1733 __________P___ -1 16.5584 141.265 3 7 292
1940244N15143 1940 56 WP MM NOT_NAMED 1940-08-31 06:00:00 NR 16.6654 140.925 main 1733 1705 __________P___ -1 16.6654 140.925 3 7 288
1940244N15143 1940 56 WP MM NOT_NAMED 1940-08-31 09:00:00 NR 16.7647 140.622 main 1705 1687 __________P___ -1 16.7647 140.622 3 6 295
1940244N15143 1940 56 WP MM NOT_NAMED 1940-08-31 12:00:00 NR 16.9000 140.400 main 1687 1680 __________O___ -1 16.9000 140.400 4 5 318
1940244N15143 1940 56 WP MM NOT_NAMED 1940-08-31 15:00:00 NR 17.1113 140.293 main 1683 1683 __________P___ -1 17.1113 140.293 4 5 346
1940244N15143 1940 56 WP MM NOT_NAMED 1940-08-31 18:00:00 NR 17.3672 140.273 main 1694 1694 __________P___ -1 17.3672 140.273 4 6 3
1940244N15143 1940 56 WP MM NOT_NAMED 1940-08-31 21:00:00 NR 17.6645 140.315 main 1704 1704 __________P___ -1 17.6645 140.315 4 6 11
1940244N15143 1940 56 WP MM NOT_NAMED 1940-09-01 00:00:00 NR 18.0000 140.400 main 1725 1725 __________O___ -1 18.0000 140.400 4 7 17
1940244N15143 1940 56 WP MM NOT_NAMED 1940-09-01 03:00:00 NR 18.3682 140.541 main 1715 1698 __________P___ -1 18.3682 140.541 4 8 21
1940244N15143 1940 56 WP MM NOT_NAMED 1940-09-01 06:00:00 NR 18.7701 140.708 main 1688 1656 __________P___ -1 18.7701 140.708 4 9 20
1940244N15143 1940 56 WP MM NOT_NAMED 1940-09-01 09:00:00 NR 19.1869 140.847 main 1656 1621 __________P___ -1 19.1869 140.847 4 9 12
1940244N15143 1940 56 WP MM NOT_NAMED 1940-09-01 12:00:00 NR 19.6000 140.900 main 1621 1589 __________O___ -1 19.6000 140.900 4 8 1
1940244N15143 1940 56 WP MM NOT_NAMED 1940-09-01 15:00:00 NR 19.9570 140.861 main 1579 1540 __________P___ -1 19.9570 140.861 4 7 347
1940244N15143 1940 56 WP MM NOT_NAMED 1940-09-01 18:00:00 NR 20.3111 140.723 main 1540 1491 __________P___ -1 20.3111 140.723 4 8 333
1940244N15143 1940 56 WP MM NOT_NAMED 1940-09-01 21:00:00 NR 20.6848 140.473 main 1491 1437 __________P___ -1 20.6848 140.473 4 10 324
1940244N15143 1940 56 WP MM NOT_NAMED 1940-09-02 00:00:00 NR 21.1000 140.100 main 1437 1372 __________O___ -1 21.1000 140.100 4 12 317
1940244N15143 1940 56 WP MM NOT_NAMED 1940-09-02 03:00:00 NR 21.5626 139.597 main 1363 1291 __________P___ -1 21.5626 139.597 4 14 313
1940244N15143 1940 56 WP MM NOT_NAMED 1940-09-02 06:00:00 NR 22.0689 138.978 main 1282 1196 __________P___ -1 22.0689 138.978 4 16 311
1940244N15143 1940 56 WP MM NOT_NAMED 1940-09-02 09:00:00 NR 22.6156 138.294 main 1196 1100 __________P___ -1 22.6156 138.294 4 17 312
1940244N15143 1940 56 WP MM NOT_NAMED 1940-09-02 12:00:00 NR 23.2000 137.600 main 1100 1011 __________O___ -1 23.2000 137.600 4 17 314
1940244N15143 1940 56 WP MM NOT_NAMED 1940-09-02 15:00:00 NR 23.8305 136.935 main 1006 907 __________P___ -1 23.8305 136.935 4 18 317
1940244N15143 1940 56 WP MM NOT_NAMED 1940-09-02 18:00:00 NR 24.4930 136.277 main 907 819 __________P___ -1 24.4930 136.277 4 18 319
1940244N15143 1940 56 WP MM NOT_NAMED 1940-09-02 21:00:00 NR 25.1589 135.654 main 809 721 __________P___ -1 25.1589 135.654 4 17 321
1940244N15143 1940 56 WP MM NOT_NAMED 1940-09-03 00:00:00 NR 25.8000 135.100 main 721 643 __________O___ -1 25.8000 135.100 4 15 326
1940244N15143 1940 56 WP MM NOT_NAMED 1940-09-03 03:00:00 NR 26.4166 134.702 main 643 570 __________P___ -1 26.4166 134.702 4 14 331
1940244N15143 1940 56 WP MM NOT_NAMED 1940-09-03 06:00:00 NR 27.0010 134.368 main 570 502 __________P___ -1 27.0010 134.368 4 13 332
1940244N15143 1940 56 WP MM NOT_NAMED 1940-09-03 09:00:00 NR 27.5351 134.025 main 502 434 __________P___ -1 27.5351 134.025 4 12 326
1940244N15143 1940 56 WP MM NOT_NAMED 1940-09-03 12:00:00 NR 28.0000 133.600 main 434 371 __________O___ -1 28.0000 133.600 4 12 314
1940244N15143 1940 56 WP MM NOT_NAMED 1940-09-03 15:00:00 NR 28.3825 133.039 main 365 304 __________P___ -1 28.3825 133.039 4 13 303
1940244N15143 1940 56 WP MM NOT_NAMED 1940-09-03 18:00:00 NR 28.6961 132.359 main 304 249 __________P___ -1 28.6961 132.359 4 14 295
1940244N15143 1940 56 WP MM NOT_NAMED 1940-09-03 21:00:00 NR 28.9615 131.600 main 239 201 __________P___ -1 28.9615 131.600 4 15 290
1940244N15143 1940 56 WP MM NOT_NAMED 1940-09-04 00:00:00 NR 29.2000 130.800 main 201 __________O___ -1 29.2000 130.800 4 15 289

デジタル台風データ・検索

IBTrACS Databaseについて

本データベースは、米国NOAAが公開する1842年以降の世界の熱帯低気圧のベストトラックデータアーカイブInternational Best Track Archive for Climate Stewardship (IBTrACS)を、ウェブで閲覧しやすい形式に変換したものです。

最終更新日:2021-12-01